sensor_id;sensor_type;location;lat;lon;timestamp;pressure;altitude;pressure_sealevel;temperature;humidity
69247;BME280;56358;56.328;43.992;2023-12-14T00:00:21;102182.28;;;-13.78;66.60
69247;BME280;56358;56.328;43.992;2023-12-14T00:02:22;102166.16;;;-13.90;66.59
69247;BME280;56358;56.328;43.992;2023-12-14T00:04:22;102192.59;;;-13.78;66.46
69247;BME280;56358;56.328;43.992;2023-12-14T00:06:23;102190.88;;;-13.77;66.63
69247;BME280;56358;56.328;43.992;2023-12-14T00:08:24;102171.50;;;-13.87;66.59
69247;BME280;56358;56.328;43.992;2023-12-14T00:10:24;102182.09;;;-13.81;66.53
69247;BME280;56358;56.328;43.992;2023-12-14T00:12:25;102180.56;;;-13.77;66.84
69247;BME280;56358;56.328;43.992;2023-12-14T00:14:26;102189.03;;;-13.80;66.65
69247;BME280;56358;56.328;43.992;2023-12-14T00:16:27;102170.97;;;-13.98;66.88
69247;BME280;56358;56.328;43.992;2023-12-14T00:18:27;102084.97;;;-14.35;67.15
69247;BME280;56358;56.328;43.992;2023-12-14T00:20:28;101955.69;;;-15.16;66.79
69247;BME280;56358;56.328;43.992;2023-12-14T00:22:29;102176.66;;;-13.87;66.77
69247;BME280;56358;56.328;43.992;2023-12-14T00:24:30;102180.34;;;-13.82;66.88
69247;BME280;56358;56.328;43.992;2023-12-14T00:26:30;102086.22;;;-14.44;66.67
69247;BME280;56358;56.328;43.992;2023-12-14T00:28:31;102159.81;;;-13.97;66.89
69247;BME280;56358;56.328;43.992;2023-12-14T00:30:32;102187.91;;;-13.85;66.92
69247;BME280;56358;56.328;43.992;2023-12-14T00:32:33;102151.00;;;-14.02;66.38
69247;BME280;56358;56.328;43.992;2023-12-14T00:34:33;102100.50;;;-14.33;66.47
69247;BME280;56358;56.328;43.992;2023-12-14T00:36:34;102177.00;;;-13.97;66.57
69247;BME280;56358;56.328;43.992;2023-12-14T00:38:35;102112.56;;;-14.32;66.84
69247;BME280;56358;56.328;43.992;2023-12-14T00:40:35;102180.91;;;-13.88;67.13
69247;BME280;56358;56.328;43.992;2023-12-14T00:42:36;102176.66;;;-13.87;67.48
69247;BME280;56358;56.328;43.992;2023-12-14T00:44:37;102186.44;;;-13.80;67.39
69247;BME280;56358;56.328;43.992;2023-12-14T00:46:37;102100.75;;;-14.28;67.25
69247;BME280;56358;56.328;43.992;2023-12-14T00:48:38;102188.97;;;-13.82;67.09
69247;BME280;56358;56.328;43.992;2023-12-14T00:50:39;102173.41;;;-13.83;67.28
69247;BME280;56358;56.328;43.992;2023-12-14T00:52:39;102196.69;;;-13.82;66.90
69247;BME280;56358;56.328;43.992;2023-12-14T00:54:40;102172.38;;;-13.87;66.94
69247;BME280;56358;56.328;43.992;2023-12-14T00:56:41;102173.47;;;-13.82;66.66
69247;BME280;56358;56.328;43.992;2023-12-14T00:58:42;102077.41;;;-14.31;66.62
69247;BME280;56358;56.328;43.992;2023-12-14T01:00:43;102164.63;;;-13.87;66.91
69247;BME280;56358;56.328;43.992;2023-12-14T01:02:43;102169.59;;;-13.73;67.08
69247;BME280;56358;56.328;43.992;2023-12-14T01:04:44;102161.53;;;-13.79;67.02
69247;BME280;56358;56.328;43.992;2023-12-14T01:06:45;102173.41;;;-13.83;67.07
69247;BME280;56358;56.328;43.992;2023-12-14T01:08:46;102165.16;;;-13.76;66.87
69247;BME280;56358;56.328;43.992;2023-12-14T01:10:46;102070.63;;;-14.29;66.77
69247;BME280;56358;56.328;43.992;2023-12-14T01:12:47;102157.16;;;-13.82;67.02
69247;BME280;56358;56.328;43.992;2023-12-14T01:14:48;102169.50;;;-13.75;66.67
69247;BME280;56358;56.328;43.992;2023-12-14T01:16:48;102153.66;;;-13.83;66.74
69247;BME280;56358;56.328;43.992;2023-12-14T01:18:49;102171.56;;;-13.86;66.87
69247;BME280;56358;56.328;43.992;2023-12-14T01:20:50;102164.78;;;-13.84;67.04
69247;BME280;56358;56.328;43.992;2023-12-14T01:22:51;102110.63;;;-14.02;66.99
69247;BME280;56358;56.328;43.992;2023-12-14T01:24:51;102144.53;;;-13.76;67.04
69247;BME280;56358;56.328;43.992;2023-12-14T01:26:52;102154.03;;;-13.75;66.82
69247;BME280;56358;56.328;43.992;2023-12-14T01:28:53;102155.81;;;-13.74;66.80
69247;BME280;56358;56.328;43.992;2023-12-14T01:30:54;102156.75;;;-13.72;67.12
69247;BME280;56358;56.328;43.992;2023-12-14T01:32:55;102171.56;;;-13.68;66.61
69247;BME280;56358;56.328;43.992;2023-12-14T01:34:56;102166.34;;;-13.69;66.63
69247;BME280;56358;56.328;43.992;2023-12-14T01:36:56;102147.63;;;-13.83;66.03
69247;BME280;56358;56.328;43.992;2023-12-14T01:38:57;102061.28;;;-14.27;66.60
69247;BME280;56358;56.328;43.992;2023-12-14T01:40:58;102149.91;;;-13.89;66.70
69247;BME280;56358;56.328;43.992;2023-12-14T01:43:09;102075.78;;;-14.29;66.99
69247;BME280;56358;56.328;43.992;2023-12-14T01:45:10;102168.63;;;-13.75;67.02
69247;BME280;56358;56.328;43.992;2023-12-14T01:47:13;102148.44;;;-13.84;67.34
69247;BME280;56358;56.328;43.992;2023-12-14T01:49:14;102168.13;;;-13.68;67.13
69247;BME280;56358;56.328;43.992;2023-12-14T01:51:15;102069.31;;;-14.21;66.84
69247;BME280;56358;56.328;43.992;2023-12-14T01:53:16;102164.66;;;-13.69;66.71
69247;BME280;56358;56.328;43.992;2023-12-14T01:55:16;102170.44;;;-13.73;66.95
69247;BME280;56358;56.328;43.992;2023-12-14T01:57:17;102164.66;;;-13.69;67.12
69247;BME280;56358;56.328;43.992;2023-12-14T01:59:18;102162.88;;;-13.70;66.89
69247;BME280;56358;56.328;43.992;2023-12-14T02:03:31;102161.63;;;-13.78;66.77
69247;BME280;56358;56.328;43.992;2023-12-14T02:05:32;102157.63;;;-14.07;67.04
69247;BME280;56358;56.328;43.992;2023-12-14T02:07:33;102093.16;;;-14.25;67.06
69247;BME280;56358;56.328;43.992;2023-12-14T02:09:33;102157.41;;;-13.94;67.09
69247;BME280;56358;56.328;43.992;2023-12-14T02:11:34;102161.41;;;-14.01;67.12
69247;BME280;56358;56.328;43.992;2023-12-14T02:13:35;102168.53;;;-13.95;67.65
69247;BME280;56358;56.328;43.992;2023-12-14T02:15:36;102175.47;;;-13.94;67.40
69247;BME280;56358;56.328;43.992;2023-12-14T02:17:37;102177.97;;;-13.95;67.56
69247;BME280;56358;56.328;43.992;2023-12-14T02:19:38;102079.56;;;-14.57;67.49
69247;BME280;56358;56.328;43.992;2023-12-14T02:21:38;102168.16;;;-14.03;67.67
69247;BME280;56358;56.328;43.992;2023-12-14T02:23:46;102177.59;;;-14.03;67.83
69247;BME280;56358;56.328;43.992;2023-12-14T02:25:46;102189.09;;;-13.96;67.95
69247;BME280;56358;56.328;43.992;2023-12-14T02:27:47;102163.50;;;-14.10;67.68
69247;BME280;56358;56.328;43.992;2023-12-14T02:29:49;102209.53;;;-14.00;67.90
69247;BME280;56358;56.328;43.992;2023-12-14T02:31:50;102187.25;;;-13.99;68.02
69247;BME280;56358;56.328;43.992;2023-12-14T02:33:50;101908.88;;;-15.60;67.89
69247;BME280;56358;56.328;43.992;2023-12-14T02:35:51;102150.44;;;-14.13;68.08
69247;BME280;56358;56.328;43.992;2023-12-14T02:37:52;102166.81;;;-14.12;68.23
69247;BME280;56358;56.328;43.992;2023-12-14T02:39:53;102061.69;;;-14.72;68.08
69247;BME280;56358;56.328;43.992;2023-12-14T02:41:54;102166.22;;;-14.07;68.04
69247;BME280;56358;56.328;43.992;2023-12-14T02:43:54;102171.47;;;-14.05;68.05
69247;BME280;56358;56.328;43.992;2023-12-14T02:45:55;102145.50;;;-14.26;68.21
69247;BME280;56358;56.328;43.992;2023-12-14T02:48:03;102078.16;;;-14.69;68.23
69247;BME280;56358;56.328;43.992;2023-12-14T02:50:04;102157.81;;;-14.21;68.17
69247;BME280;56358;56.328;43.992;2023-12-14T02:52:06;102161.41;;;-14.17;68.55
69247;BME280;56358;56.328;43.992;2023-12-14T02:54:06;102146.00;;;-14.34;68.56
69247;BME280;56358;56.328;43.992;2023-12-14T02:56:09;102088.69;;;-14.64;68.48
69247;BME280;56358;56.328;43.992;2023-12-14T02:58:10;102175.13;;;-14.18;68.78
69247;BME280;56358;56.328;43.992;2023-12-14T03:00:13;102167.53;;;-14.15;68.70
69247;BME280;56358;56.328;43.992;2023-12-14T03:02:14;102158.84;;;-14.17;68.66
69247;BME280;56358;56.328;43.992;2023-12-14T03:04:15;102165.91;;;-14.13;68.68
69247;BME280;56358;56.328;43.992;2023-12-14T03:06:16;102139.41;;;-14.28;68.94
69247;BME280;56358;56.328;43.992;2023-12-14T03:08:16;102160.75;;;-14.13;68.81
69247;BME280;56358;56.328;43.992;2023-12-14T03:10:17;102165.19;;;-14.10;68.73
69247;BME280;56358;56.328;43.992;2023-12-14T03:12:19;102074.00;;;-14.48;68.42
69247;BME280;56358;56.328;43.992;2023-12-14T03:14:19;102152.53;;;-14.06;68.59
69247;BME280;56358;56.328;43.992;2023-12-14T03:16:21;102105.16;;;-14.26;68.38
69247;BME280;56358;56.328;43.992;2023-12-14T03:18:21;102057.50;;;-14.52;68.43
69247;BME280;56358;56.328;43.992;2023-12-14T03:20:22;102143.81;;;-13.91;68.25
69247;BME280;56358;56.328;43.992;2023-12-14T03:22:23;102155.28;;;-13.85;68.21
69247;BME280;56358;56.328;43.992;2023-12-14T03:24:24;102143.34;;;-13.83;68.18
69247;BME280;56358;56.328;43.992;2023-12-14T03:26:24;102080.34;;;-14.24;67.72
69247;BME280;56358;56.328;43.992;2023-12-14T03:28:25;102057.16;;;-14.42;67.99
69247;BME280;56358;56.328;43.992;2023-12-14T03:30:26;102144.16;;;-13.84;68.22
69247;BME280;56358;56.328;43.992;2023-12-14T03:32:27;102157.88;;;-13.85;68.06
69247;BME280;56358;56.328;43.992;2023-12-14T03:34:28;102150.28;;;-13.82;68.15
69247;BME280;56358;56.328;43.992;2023-12-14T03:36:29;102150.28;;;-13.82;68.59
69247;BME280;56358;56.328;43.992;2023-12-14T03:38:29;102161.53;;;-13.79;68.12
69247;BME280;56358;56.328;43.992;2023-12-14T03:40:30;102141.66;;;-13.82;68.24
69247;BME280;56358;56.328;43.992;2023-12-14T03:42:31;102129.59;;;-13.83;68.42
69247;BME280;56358;56.328;43.992;2023-12-14T03:44:31;102152.56;;;-13.70;68.19
69247;BME280;56358;56.328;43.992;2023-12-14T03:46:33;102056.88;;;-14.30;68.34
69247;BME280;56358;56.328;43.992;2023-12-14T03:48:34;102159.91;;;-13.59;68.26
69247;BME280;56358;56.328;43.992;2023-12-14T03:50:35;102137.38;;;-13.63;68.48
69247;BME280;56358;56.328;43.992;2023-12-14T03:52:36;102166.72;;;-13.61;67.91
69247;BME280;56358;56.328;43.992;2023-12-14T03:54:36;102155.94;;;-13.53;68.09
69247;BME280;56358;56.328;43.992;2023-12-14T03:56:37;102152.47;;;-13.53;67.78
69247;BME280;56358;56.328;43.992;2023-12-14T03:58:38;102160.44;;;-13.49;68.08
69247;BME280;56358;56.328;43.992;2023-12-14T04:00:39;102064.25;;;-14.02;68.15
69247;BME280;56358;56.328;43.992;2023-12-14T04:02:40;102146.44;;;-13.54;67.76
69247;BME280;56358;56.328;43.992;2023-12-14T04:04:41;102166.94;;;-13.39;67.54
69247;BME280;56358;56.328;43.992;2023-12-14T04:06:41;102164.84;;;-13.46;67.36
69247;BME280;56358;56.328;43.992;2023-12-14T04:08:42;102173.63;;;-13.42;67.80
69247;BME280;56358;56.328;43.992;2023-12-14T04:10:43;102159.25;;;-13.37;67.72
69247;BME280;56358;56.328;43.992;2023-12-14T04:12:43;102166.94;;;-13.39;67.48
69247;BME280;56358;56.328;43.992;2023-12-14T04:14:45;102162.44;;;-13.43;67.51
69247;BME280;56358;56.328;43.992;2023-12-14T04:16:46;101980.47;;;-14.47;67.47
69247;BME280;56358;56.328;43.992;2023-12-14T04:18:47;102149.22;;;-13.49;67.97
69247;BME280;56358;56.328;43.992;2023-12-14T04:20:47;102160.00;;;-13.40;67.39
69247;BME280;56358;56.328;43.992;2023-12-14T04:22:48;102154.09;;;-13.37;67.67
69247;BME280;56358;56.328;43.992;2023-12-14T04:24:50;102103.50;;;-13.71;67.37
69247;BME280;56358;56.328;43.992;2023-12-14T04:26:51;102101.78;;;-13.71;67.63
69247;BME280;56358;56.328;43.992;2023-12-14T04:28:52;102155.22;;;-13.31;67.48
69247;BME280;56358;56.328;43.992;2023-12-14T04:30:52;102163.03;;;-13.29;67.28
69247;BME280;56358;56.328;43.992;2023-12-14T04:32:53;102164.41;;;-13.37;67.08
69247;BME280;56358;56.328;43.992;2023-12-14T04:34:54;102174.03;;;-13.33;67.09
69247;BME280;56358;56.328;43.992;2023-12-14T04:36:54;102162.78;;;-13.35;67.07
69247;BME280;56358;56.328;43.992;2023-12-14T04:38:58;102045.59;;;-13.96;67.10
69247;BME280;56358;56.328;43.992;2023-12-14T04:40:58;102169.31;;;-13.24;67.36
69247;BME280;56358;56.328;43.992;2023-12-14T04:42:59;102155.66;;;-13.21;67.38
69247;BME280;56358;56.328;43.992;2023-12-14T04:45:00;102124.72;;;-13.39;67.24
69247;BME280;56358;56.328;43.992;2023-12-14T04:47:00;102095.59;;;-13.56;67.26
69247;BME280;56358;56.328;43.992;2023-12-14T04:49:01;102096.31;;;-13.59;67.41
69247;BME280;56358;56.328;43.992;2023-12-14T04:51:02;102161.25;;;-13.12;66.86
69247;BME280;56358;56.328;43.992;2023-12-14T04:53:03;102160.38;;;-13.12;66.84
69247;BME280;56358;56.328;43.992;2023-12-14T04:55:05;102126.22;;;-13.25;67.02
69247;BME280;56358;56.328;43.992;2023-12-14T04:57:06;102140.22;;;-13.20;66.45
69247;BME280;56358;56.328;43.992;2023-12-14T04:59:07;102023.94;;;-14.00;66.31
69247;BME280;56358;56.328;43.992;2023-12-14T05:01:08;102160.69;;;-13.05;67.09
69247;BME280;56358;56.328;43.992;2023-12-14T05:03:08;102154.66;;;-13.05;66.45
69247;BME280;56358;56.328;43.992;2023-12-14T05:05:09;102146.63;;;-13.11;66.30
69247;BME280;56358;56.328;43.992;2023-12-14T05:07:10;102162.97;;;-12.93;66.54
69247;BME280;56358;56.328;43.992;2023-12-14T05:09:11;102070.16;;;-13.49;66.19
69247;BME280;56358;56.328;43.992;2023-12-14T05:11:14;102050.28;;;-13.69;66.13
69247;BME280;56358;56.328;43.992;2023-12-14T05:13:15;102176.91;;;-12.89;66.10
69247;BME280;56358;56.328;43.992;2023-12-14T05:15:16;102181.25;;;-12.88;66.29
69247;BME280;56358;56.328;43.992;2023-12-14T05:17:16;102060.22;;;-13.59;65.65
69247;BME280;56358;56.328;43.992;2023-12-14T05:19:17;102170.09;;;-12.87;66.21
69247;BME280;56358;56.328;43.992;2023-12-14T05:21:19;102068.75;;;-13.42;66.13
69247;BME280;56358;56.328;43.992;2023-12-14T05:23:19;102174.44;;;-12.86;65.99
69247;BME280;56358;56.328;43.992;2023-12-14T05:25:21;102137.13;;;-12.93;65.97
69247;BME280;56358;56.328;43.992;2023-12-14T05:27:21;102158.16;;;-12.85;65.89
69247;BME280;56358;56.328;43.992;2023-12-14T05:29:22;102157.28;;;-12.86;66.10
69247;BME280;56358;56.328;43.992;2023-12-14T05:31:23;102153.09;;;-12.82;65.89
69247;BME280;56358;56.328;43.992;2023-12-14T05:33:24;102164.47;;;-12.78;65.91
69247;BME280;56358;56.328;43.992;2023-12-14T05:35:25;102142.72;;;-12.84;66.06
69247;BME280;56358;56.328;43.992;2023-12-14T05:37:26;102154.25;;;-12.75;65.82
69247;BME280;56358;56.328;43.992;2023-12-14T05:39:26;102045.72;;;-13.37;65.79
69247;BME280;56358;56.328;43.992;2023-12-14T05:41:27;102138.41;;;-12.83;65.99
69247;BME280;56358;56.328;43.992;2023-12-14T05:43:28;102159.84;;;-12.66;65.85
69247;BME280;56358;56.328;43.992;2023-12-14T05:45:28;102158.47;;;-12.58;65.85
69247;BME280;56358;56.328;43.992;2023-12-14T05:47:29;102165.97;;;-12.64;65.56
69247;BME280;56358;56.328;43.992;2023-12-14T05:49:31;102140.13;;;-12.64;65.54
69247;BME280;56358;56.328;43.992;2023-12-14T05:51:32;102074.00;;;-13.00;66.00
69247;BME280;56358;56.328;43.992;2023-12-14T05:53:33;102154.59;;;-12.48;66.06
69247;BME280;56358;56.328;43.992;2023-12-14T05:55:41;102120.22;;;-12.67;65.37
69247;BME280;56358;56.328;43.992;2023-12-14T05:57:42;102146.00;;;-12.47;65.51
69247;BME280;56358;56.328;43.992;2023-12-14T05:59:42;102152.50;;;-12.57;65.73
69247;BME280;56358;56.328;43.992;2023-12-14T06:01:43;102142.56;;;-12.48;65.85
69247;BME280;56358;56.328;43.992;2023-12-14T06:03:44;102108.03;;;-12.69;65.78
69247;BME280;56358;56.328;43.992;2023-12-14T06:05:46;102142.91;;;-12.59;65.68
69247;BME280;56358;56.328;43.992;2023-12-14T06:07:47;102046.91;;;-13.09;65.88
69247;BME280;56358;56.328;43.992;2023-12-14T06:09:48;102138.69;;;-12.57;65.81
69247;BME280;56358;56.328;43.992;2023-12-14T06:11:49;102118.38;;;-12.69;65.92
69247;BME280;56358;56.328;43.992;2023-12-14T06:13:49;102121.38;;;-12.60;66.01
69247;BME280;56358;56.328;43.992;2023-12-14T06:15:50;102160.47;;;-12.52;66.01
69247;BME280;56358;56.328;43.992;2023-12-14T06:17:52;102122.81;;;-12.67;66.15
69247;BME280;56358;56.328;43.992;2023-12-14T06:19:52;102130.09;;;-12.56;65.75
69247;BME280;56358;56.328;43.992;2023-12-14T06:21:53;102125.22;;;-12.70;66.30
69247;BME280;56358;56.328;43.992;2023-12-14T06:23:55;102137.06;;;-12.55;66.46
69247;BME280;56358;56.328;43.992;2023-12-14T06:25:56;102136.13;;;-12.57;66.18
69247;BME280;56358;56.328;43.992;2023-12-14T06:27:56;102124.06;;;-12.57;66.25
69247;BME280;56358;56.328;43.992;2023-12-14T06:29:58;102103.00;;;-12.66;66.30
69247;BME280;56358;56.328;43.992;2023-12-14T06:31:59;102128.75;;;-12.48;66.64
69247;BME280;56358;56.328;43.992;2023-12-14T06:34:00;102129.91;;;-12.41;66.74
69247;BME280;56358;56.328;43.992;2023-12-14T06:36:04;102105.34;;;-12.51;66.69
69247;BME280;56358;56.328;43.992;2023-12-14T06:38:05;102109.38;;;-12.58;66.14
69247;BME280;56358;56.328;43.992;2023-12-14T06:40:06;102009.22;;;-13.06;65.99
69247;BME280;56358;56.328;43.992;2023-12-14T06:42:07;102074.59;;;-12.66;65.97
69247;BME280;56358;56.328;43.992;2023-12-14T06:44:09;102134.22;;;-12.21;66.15
69247;BME280;56358;56.328;43.992;2023-12-14T06:46:10;102135.84;;;-12.23;65.49
69247;BME280;56358;56.328;43.992;2023-12-14T06:48:10;102115.59;;;-12.33;65.82
69247;BME280;56358;56.328;43.992;2023-12-14T06:50:11;102137.13;;;-12.13;65.84
69247;BME280;56358;56.328;43.992;2023-12-14T06:52:13;102140.16;;;-12.02;65.34
69247;BME280;56358;56.328;43.992;2023-12-14T06:54:14;102125.19;;;-12.09;65.42
69247;BME280;56358;56.328;43.992;2023-12-14T06:56:15;102158.19;;;-12.04;64.99
69247;BME280;56358;56.328;43.992;2023-12-14T06:58:17;102129.53;;;-12.08;65.43
69247;BME280;56358;56.328;43.992;2023-12-14T07:00:18;102129.16;;;-11.97;65.57
69247;BME280;56358;56.328;43.992;2023-12-14T07:02:18;102055.06;;;-12.38;65.19
69247;BME280;56358;56.328;43.992;2023-12-14T07:04:19;102109.88;;;-12.26;64.73
69247;BME280;56358;56.328;43.992;2023-12-14T07:06:20;102137.09;;;-11.92;64.76
69247;BME280;56358;56.328;43.992;2023-12-14T07:08:21;102159.84;;;-11.83;64.64
69247;BME280;56358;56.328;43.992;2023-12-14T07:10:22;102117.22;;;-11.93;64.96
69247;BME280;56358;56.328;43.992;2023-12-14T07:12:23;102047.66;;;-12.31;64.46
69247;BME280;56358;56.328;43.992;2023-12-14T07:14:23;102139.00;;;-11.88;64.54
69247;BME280;56358;56.328;43.992;2023-12-14T07:16:24;102139.03;;;-11.86;64.75
69247;BME280;56358;56.328;43.992;2023-12-14T07:18:25;102141.75;;;-11.83;64.57
69247;BME280;56358;56.328;43.992;2023-12-14T07:20:25;102082.63;;;-12.18;64.81
69247;BME280;56358;56.328;43.992;2023-12-14T07:22:26;102145.53;;;-11.75;64.86
69247;BME280;56358;56.328;43.992;2023-12-14T07:24:27;102138.66;;;-11.74;64.33
69247;BME280;56358;56.328;43.992;2023-12-14T07:26:27;102135.75;;;-11.82;64.14
69247;BME280;56358;56.328;43.992;2023-12-14T07:28:28;102129.19;;;-11.74;64.30
69247;BME280;56358;56.328;43.992;2023-12-14T07:30:29;102026.75;;;-12.35;63.81
69247;BME280;56358;56.328;43.992;2023-12-14T07:32:29;102141.03;;;-11.58;64.21
69247;BME280;56358;56.328;43.992;2023-12-14T07:34:30;102148.72;;;-11.59;63.70
69247;BME280;56358;56.328;43.992;2023-12-14T07:36:31;102140.28;;;-11.55;63.82
69247;BME280;56358;56.328;43.992;2023-12-14T07:38:32;102044.97;;;-12.11;63.72
69247;BME280;56358;56.328;43.992;2023-12-14T07:40:32;102107.72;;;-11.71;63.60
69247;BME280;56358;56.328;43.992;2023-12-14T07:42:33;102072.25;;;-11.97;63.09
69247;BME280;56358;56.328;43.992;2023-12-14T07:44:34;102129.66;;;-11.62;63.33
69247;BME280;56358;56.328;43.992;2023-12-14T07:46:35;102146.63;;;-11.47;63.41
69247;BME280;56358;56.328;43.992;2023-12-14T07:48:40;102148.41;;;-11.46;63.60
69247;BME280;56358;56.328;43.992;2023-12-14T07:50:40;102154.50;;;-11.44;63.17
69247;BME280;56358;56.328;43.992;2023-12-14T07:52:41;102158.81;;;-11.44;63.44
69247;BME280;56358;56.328;43.992;2023-12-14T07:54:42;102153.34;;;-11.30;63.71
69247;BME280;56358;56.328;43.992;2023-12-14T07:56:43;102065.22;;;-11.78;63.44
69247;BME280;56358;56.328;43.992;2023-12-14T07:58:43;102140.75;;;-11.20;63.52
69247;BME280;56358;56.328;43.992;2023-12-14T08:00:44;102158.00;;;-11.21;62.41
69247;BME280;56358;56.328;43.992;2023-12-14T08:02:45;102145.88;;;-11.22;62.59
69247;BME280;56358;56.328;43.992;2023-12-14T08:04:45;102152.81;;;-11.21;62.96
69247;BME280;56358;56.328;43.992;2023-12-14T08:06:46;102084.97;;;-11.57;62.65
69247;BME280;56358;56.328;43.992;2023-12-14T08:08:47;102091.50;;;-11.44;63.09
69247;BME280;56358;56.328;43.992;2023-12-14T08:10:48;102151.63;;;-11.06;62.53
69247;BME280;56358;56.328;43.992;2023-12-14T08:12:48;102148.16;;;-11.30;62.24
69247;BME280;56358;56.328;43.992;2023-12-14T08:14:49;102173.59;;;-11.19;62.64
69247;BME280;56358;56.328;43.992;2023-12-14T08:16:50;102148.34;;;-11.25;62.61
69247;BME280;56358;56.328;43.992;2023-12-14T08:18:51;102166.34;;;-11.28;62.57
69247;BME280;56358;56.328;43.992;2023-12-14T08:20:51;102159.63;;;-11.23;62.60
69247;BME280;56358;56.328;43.992;2023-12-14T08:22:55;102120.38;;;-11.56;62.31
69247;BME280;56358;56.328;43.992;2023-12-14T08:24:56;102149.97;;;-11.27;62.44
69247;BME280;56358;56.328;43.992;2023-12-14T08:26:57;102153.53;;;-11.25;63.34
69247;BME280;56358;56.328;43.992;2023-12-14T08:28:58;102174.47;;;-11.19;62.02
69247;BME280;56358;56.328;43.992;2023-12-14T08:30:59;102127.16;;;-11.37;61.92
69247;BME280;56358;56.328;43.992;2023-12-14T08:33:02;102133.38;;;-11.32;62.39
69247;BME280;56358;56.328;43.992;2023-12-14T08:35:03;102058.03;;;-11.63;62.78
69247;BME280;56358;56.328;43.992;2023-12-14T08:37:06;102148.97;;;-11.08;62.09
69247;BME280;56358;56.328;43.992;2023-12-14T08:39:06;102155.69;;;-11.13;62.28
69247;BME280;56358;56.328;43.992;2023-12-14T08:41:07;102117.97;;;-11.29;62.57
69247;BME280;56358;56.328;43.992;2023-12-14T08:43:08;102168.16;;;-11.03;61.72
69247;BME280;56358;56.328;43.992;2023-12-14T08:45:09;102163.09;;;-11.00;61.98
69247;BME280;56358;56.328;43.992;2023-12-14T08:47:12;102155.69;;;-11.13;62.25
69247;BME280;56358;56.328;43.992;2023-12-14T08:49:13;102148.75;;;-11.14;62.29
69247;BME280;56358;56.328;43.992;2023-12-14T08:51:14;102156.69;;;-11.09;62.11
69247;BME280;56358;56.328;43.992;2023-12-14T08:53:14;102152.38;;;-11.09;61.84
69247;BME280;56358;56.328;43.992;2023-12-14T08:55:15;102122.97;;;-11.11;62.04
69247;BME280;56358;56.328;43.992;2023-12-14T08:57:16;102126.03;;;-11.21;61.71
69247;BME280;56358;56.328;43.992;2023-12-14T08:59:17;102125.88;;;-11.26;62.04
69247;BME280;56358;56.328;43.992;2023-12-14T09:01:20;102143.22;;;-11.01;62.36
69247;BME280;56358;56.328;43.992;2023-12-14T09:03:23;102100.69;;;-11.30;62.42
69247;BME280;56358;56.328;43.992;2023-12-14T09:05:24;102125.31;;;-11.17;62.04
69247;BME280;56358;56.328;43.992;2023-12-14T09:07:25;102150.09;;;-11.01;61.85
69247;BME280;56358;56.328;43.992;2023-12-14T09:09:26;102162.97;;;-11.03;61.83
69247;BME280;56358;56.328;43.992;2023-12-14T09:11:26;102143.38;;;-10.96;61.73
69247;BME280;56358;56.328;43.992;2023-12-14T09:13:27;102145.09;;;-10.97;61.95
69247;BME280;56358;56.328;43.992;2023-12-14T09:15:28;102143.66;;;-10.88;62.07
69247;BME280;56358;56.328;43.992;2023-12-14T09:17:28;102142.25;;;-11.03;62.02
69247;BME280;56358;56.328;43.992;2023-12-14T09:19:33;102133.38;;;-11.09;61.67
69247;BME280;56358;56.328;43.992;2023-12-14T09:21:34;102156.88;;;-11.05;61.38
69247;BME280;56358;56.328;43.992;2023-12-14T09:23:35;102160.34;;;-11.04;61.95
69247;BME280;56358;56.328;43.992;2023-12-14T09:25:35;102153.44;;;-11.04;62.19
69247;BME280;56358;56.328;43.992;2023-12-14T09:27:36;102151.41;;;-11.13;61.87
69247;BME280;56358;56.328;43.992;2023-12-14T09:29:37;102154.66;;;-11.18;62.36
69247;BME280;56358;56.328;43.992;2023-12-14T09:31:41;102132.47;;;-11.34;62.03
69247;BME280;56358;56.328;43.992;2023-12-14T09:33:43;102139.72;;;-11.24;62.38
69247;BME280;56358;56.328;43.992;2023-12-14T09:35:43;102153.84;;;-11.16;62.27
69247;BME280;56358;56.328;43.992;2023-12-14T09:37:44;102156.38;;;-11.17;62.50
69247;BME280;56358;56.328;43.992;2023-12-14T09:39:45;102154.81;;;-11.14;62.50
69247;BME280;56358;56.328;43.992;2023-12-14T09:41:46;102157.56;;;-11.09;61.86
69247;BME280;56358;56.328;43.992;2023-12-14T09:43:47;102155.63;;;-11.15;62.36
69247;BME280;56358;56.328;43.992;2023-12-14T09:45:49;102151.56;;;-11.08;62.20
69247;BME280;56358;56.328;43.992;2023-12-14T09:47:51;102152.38;;;-11.09;62.40
69247;BME280;56358;56.328;43.992;2023-12-14T09:49:52;102149.09;;;-11.05;61.98
69247;BME280;56358;56.328;43.992;2023-12-14T09:51:53;102125.31;;;-11.17;62.06
69247;BME280;56358;56.328;43.992;2023-12-14T09:53:54;102150.53;;;-10.89;62.30
69247;BME280;56358;56.328;43.992;2023-12-14T09:55:58;102150.88;;;-10.80;62.31
69247;BME280;56358;56.328;43.992;2023-12-14T09:57:59;102167.47;;;-10.74;61.23
69247;BME280;56358;56.328;43.992;2023-12-14T10:00:03;102149.75;;;-10.86;61.66
69247;BME280;56358;56.328;43.992;2023-12-14T10:02:11;102155.34;;;-10.75;61.88
69247;BME280;56358;56.328;43.992;2023-12-14T10:04:14;102137.16;;;-10.77;61.58
69247;BME280;56358;56.328;43.992;2023-12-14T10:06:17;102155.13;;;-10.57;61.75
69247;BME280;56358;56.328;43.992;2023-12-14T10:08:18;102140.25;;;-10.63;61.63
69247;BME280;56358;56.328;43.992;2023-12-14T10:10:19;102168.47;;;-10.47;61.10
69247;BME280;56358;56.328;43.992;2023-12-14T10:12:20;102170.69;;;-10.57;60.64
69247;BME280;56358;56.328;43.992;2023-12-14T10:14:24;102169.59;;;-10.64;61.09
69247;BME280;56358;56.328;43.992;2023-12-14T10:16:30;102163.72;;;-10.58;61.36
69247;BME280;56358;56.328;43.992;2023-12-14T10:18:31;102161.09;;;-10.60;61.70